createdAt,value
2019-05-30T00:02:21.383Z,4.07
2019-05-30T00:04:56.099Z,4.93
2019-05-30T00:07:30.316Z,3.07
2019-05-30T00:10:05.201Z,2.90
2019-05-30T00:12:38.487Z,2.90
2019-05-30T00:15:11.769Z,3.47
2019-05-30T00:17:45.593Z,3.30
2019-05-30T00:20:19.121Z,2.77
2019-05-30T00:22:52.710Z,3.80
2019-05-30T00:25:26.514Z,4.23
2019-05-30T00:28:01.335Z,4.50
2019-05-30T00:30:35.151Z,2.60
2019-05-30T00:33:08.671Z,2.97
2019-05-30T00:35:42.554Z,2.77
2019-05-30T00:38:15.803Z,3.90
2019-05-30T00:40:49.454Z,2.90
2019-05-30T00:43:23.539Z,3.00
2019-05-30T00:45:57.942Z,5.17
2019-05-30T00:48:42.975Z,3.70
2019-05-30T00:51:28.295Z,4.13
2019-05-30T00:54:13.792Z,2.77
2019-05-30T00:56:56.690Z,2.97
2019-05-30T00:59:39.356Z,3.37
2019-05-30T01:02:30.014Z,2.77
2019-05-30T01:05:14.627Z,3.07
2019-05-30T01:07:48.537Z,3.10
2019-05-30T01:10:32.826Z,2.50
2019-05-30T01:13:07.227Z,3.40
2019-05-30T01:15:41.305Z,3.27
2019-05-30T01:18:15.093Z,3.27
2019-05-30T01:20:49.180Z,2.90
2019-05-30T01:23:36.474Z,2.77
2019-05-30T01:26:21.111Z,3.17
2019-05-30T01:28:55.076Z,2.90
2019-05-30T01:31:38.121Z,2.77
2019-05-30T01:34:11.821Z,2.33
2019-05-30T01:36:45.113Z,3.77
2019-05-30T01:39:27.520Z,2.70
2019-05-30T01:42:01.904Z,3.07
2019-05-30T01:44:35.246Z,5.27
2019-05-30T01:47:17.140Z,2.80
2019-05-30T01:49:50.467Z,2.90
2019-05-30T01:52:24.413Z,3.47
2019-05-30T01:54:58.540Z,3.30
2019-05-30T01:57:41.183Z,2.87
2019-05-30T02:00:21.173Z,3.20
2019-05-30T02:03:09.653Z,3.57
2019-05-30T02:05:43.285Z,3.13
2019-05-30T02:08:16.794Z,3.87
2019-05-30T02:10:50.447Z,3.93
2019-05-30T02:13:24.348Z,4.47
2019-05-30T02:15:59.495Z,3.23
2019-05-30T02:18:33.154Z,2.47
2019-05-30T02:21:06.432Z,2.80
2019-05-30T02:23:40.277Z,2.93
2019-05-30T02:26:13.496Z,2.70
2019-05-30T02:28:48.492Z,3.17
2019-05-30T02:31:38.282Z,3.83
2019-05-30T02:33:58.021Z,4.07
2019-05-30T02:36:31.837Z,2.77
2019-05-30T02:39:09.681Z,2.87
2019-05-30T02:41:42.928Z,2.57
2019-05-30T02:44:27.275Z,2.70
2019-05-30T02:47:01.458Z,2.67
2019-05-30T02:49:36.052Z,2.40
2019-05-30T02:52:10.825Z,2.37
2019-05-30T02:54:44.931Z,4.47
2019-05-30T02:57:18.311Z,2.40
2019-05-30T02:59:51.940Z,2.40
2019-05-30T03:02:25.178Z,2.80
2019-05-30T03:04:58.340Z,2.60
2019-05-30T03:07:43.278Z,2.40
2019-05-30T03:10:17.202Z,3.30
2019-05-30T03:13:01.744Z,2.30
2019-05-30T03:15:52.778Z,4.33
2019-05-30T03:18:26.088Z,2.40
2019-05-30T03:20:59.639Z,2.27
2019-05-30T03:23:32.711Z,2.37
2019-05-30T03:26:09.738Z,2.20
2019-05-30T03:28:42.024Z,3.10
2019-05-30T03:31:27.302Z,2.40
2019-05-30T03:34:05.761Z,2.83
2019-05-30T03:36:46.661Z,2.40
2019-05-30T03:39:28.678Z,2.80
2019-05-30T03:42:04.418Z,2.40
2019-05-30T03:44:49.671Z,2.93
2019-05-30T03:47:25.155Z,2.67
2019-05-30T03:50:00.585Z,3.37
2019-05-30T03:52:34.303Z,2.23
2019-05-30T03:55:23.713Z,3.03
2019-05-30T03:58:07.782Z,2.90
2019-05-30T04:00:45.830Z,2.90
2019-05-30T04:03:47.871Z,2.97
2019-05-30T04:06:30.215Z,6.93
2019-05-30T04:09:09.836Z,2.20
2019-05-30T04:11:49.237Z,2.40
2019-05-30T04:14:26.535Z,2.63
2019-05-30T04:17:00.499Z,3.00
2019-05-30T04:19:34.158Z,2.20
2019-05-30T04:22:07.313Z,1.97
2019-05-30T04:24:41.718Z,3.10
2019-05-30T04:27:23.696Z,2.63
2019-05-30T04:29:57.227Z,3.37
2019-05-30T04:32:30.744Z,2.30
2019-05-30T04:35:03.915Z,2.50
2019-05-30T04:37:46.850Z,3.37
2019-05-30T04:40:21.160Z,2.60
2019-05-30T04:42:54.769Z,3.07
2019-05-30T04:45:28.614Z,2.40
2019-05-30T04:48:01.489Z,3.40
2019-05-30T04:50:34.818Z,2.57
2019-05-30T04:53:10.151Z,2.33
2019-05-30T04:55:44.554Z,4.73
2019-05-30T04:58:21.046Z,2.60
2019-05-30T05:00:53.409Z,2.67
2019-05-30T05:03:44.262Z,2.90
2019-05-30T05:06:13.783Z,3.07
2019-05-30T05:08:47.225Z,2.77
2019-05-30T05:11:22.949Z,2.90
2019-05-30T05:13:55.597Z,2.97
2019-05-30T05:16:35.575Z,3.87
2019-05-30T05:19:14.888Z,3.10
2019-05-30T05:21:48.109Z,2.70
2019-05-30T05:24:21.944Z,2.83
2019-05-30T05:26:55.611Z,3.03
2019-05-30T05:29:29.139Z,3.13
2019-05-30T05:32:02.594Z,3.50
2019-05-30T05:34:45.848Z,3.07
2019-05-30T05:37:19.170Z,5.67
2019-05-30T05:39:52.863Z,3.53
2019-05-30T05:42:28.493Z,3.93
2019-05-30T05:45:01.827Z,2.97
2019-05-30T05:47:35.508Z,4.17
2019-05-30T05:50:09.621Z,4.67
2019-05-30T05:52:53.161Z,3.30
2019-05-30T05:55:26.919Z,3.03
2019-05-30T05:58:09.863Z,4.13
2019-05-30T06:00:43.129Z,3.30
2019-05-30T06:03:18.548Z,4.23
2019-05-30T06:05:53.581Z,3.33
2019-05-30T06:08:42.311Z,4.50
2019-05-30T06:11:16.611Z,3.40
2019-05-30T06:13:50.832Z,3.03
2019-05-30T06:16:24.189Z,3.07
2019-05-30T06:18:57.556Z,3.33
2019-05-30T06:21:30.879Z,3.80
2019-05-30T06:24:12.775Z,3.50
2019-05-30T06:26:46.329Z,3.50
2019-05-30T06:29:20.125Z,3.50
2019-05-30T06:31:53.375Z,3.70
2019-05-30T06:34:38.086Z,4.10
2019-05-30T06:37:01.969Z,4.37
2019-05-30T06:39:35.455Z,3.90
2019-05-30T06:42:09.192Z,6.27
2019-05-30T06:44:42.758Z,3.87
2019-05-30T06:47:16.405Z,3.90
2019-05-30T06:49:49.970Z,3.90
2019-05-30T06:52:27.079Z,3.90
2019-05-30T06:55:00.795Z,3.83
2019-05-30T06:57:34.116Z,3.73
2019-05-30T07:00:08.034Z,3.83
2019-05-30T07:02:41.631Z,3.87
2019-05-30T07:05:15.648Z,4.60
2019-05-30T07:07:58.015Z,5.30
2019-05-30T07:10:31.703Z,3.50
2019-05-30T07:13:05.750Z,4.17
2019-05-30T07:15:55.176Z,3.60
2019-05-30T07:18:33.364Z,4.03
2019-05-30T07:21:03.900Z,5.37
2019-05-30T07:23:39.524Z,4.17
2019-05-30T07:26:15.760Z,3.43
2019-05-30T07:28:49.567Z,3.90
2019-05-30T07:31:24.035Z,5.83
2019-05-30T07:34:07.405Z,3.83
2019-05-30T07:36:41.365Z,5.10
2019-05-30T07:39:15.269Z,7.63
2019-05-30T07:42:06.438Z,4.43
2019-05-30T07:44:50.451Z,3.57
2019-05-30T07:47:25.996Z,4.73
2019-05-30T07:50:10.462Z,6.00
2019-05-30T07:52:56.043Z,6.27
2019-05-30T07:55:40.020Z,5.50
2019-05-30T07:58:13.338Z,5.10
2019-05-30T08:00:47.205Z,4.03
2019-05-30T08:03:21.023Z,6.37
2019-05-30T08:06:06.267Z,5.33
2019-05-30T08:08:48.778Z,4.67
2019-05-30T08:11:22.100Z,4.20
2019-05-30T08:13:55.449Z,6.30
2019-05-30T08:16:29.302Z,4.30
2019-05-30T08:19:14.550Z,4.73
2019-05-30T08:21:48.158Z,4.67
2019-05-30T08:24:21.757Z,5.20
2019-05-30T08:26:55.725Z,4.60
2019-05-30T08:29:30.130Z,4.93
2019-05-30T08:32:03.560Z,5.30
2019-05-30T08:34:36.813Z,7.53
2019-05-30T08:37:20.896Z,7.77
2019-05-30T08:39:54.867Z,5.63
2019-05-30T08:42:29.488Z,5.10
2019-05-30T08:45:02.858Z,5.20
2019-05-30T08:47:37.852Z,4.43
2019-05-30T08:50:12.128Z,4.50
2019-05-30T08:52:46.031Z,5.63
2019-05-30T08:55:21.015Z,5.10
2019-05-30T08:57:54.770Z,4.70
2019-05-30T09:00:28.943Z,7.53
2019-05-30T09:03:10.905Z,5.50
2019-05-30T09:05:59.232Z,5.23
2019-05-30T09:08:19.669Z,5.30
2019-05-30T09:10:53.028Z,5.33
2019-05-30T09:13:26.650Z,5.07
2019-05-30T09:16:01.727Z,5.10
2019-05-30T09:18:45.379Z,6.90
2019-05-30T09:21:18.924Z,7.43
2019-05-30T09:23:52.192Z,5.60
2019-05-30T09:26:25.529Z,6.93
2019-05-30T09:28:59.040Z,7.13
2019-05-30T09:31:32.373Z,5.07
2019-05-30T09:34:05.798Z,5.53
2019-05-30T09:36:48.973Z,5.77
2019-05-30T09:39:32.291Z,4.83
2019-05-30T09:42:05.734Z,5.67
2019-05-30T09:44:40.532Z,6.40
2019-05-30T09:47:14.641Z,5.77
2019-05-30T09:49:48.609Z,7.27
2019-05-30T09:52:30.968Z,4.97
2019-05-30T09:55:05.054Z,6.27
2019-05-30T09:57:53.395Z,5.57
2019-05-30T10:00:27.168Z,4.30
2019-05-30T10:03:02.875Z,4.53
2019-05-30T10:05:52.579Z,6.27
2019-05-30T10:08:26.345Z,5.80
2019-05-30T10:10:59.842Z,6.27
2019-05-30T10:13:33.926Z,7.93
2019-05-30T10:16:16.675Z,5.30
2019-05-30T10:18:58.986Z,4.07
2019-05-30T10:21:32.116Z,4.83
2019-05-30T10:24:05.815Z,6.47
2019-05-30T10:26:37.876Z,5.80
2019-05-30T10:29:11.834Z,4.43
2019-05-30T10:31:46.394Z,6.87
2019-05-30T10:34:20.902Z,4.80
2019-05-30T10:36:54.141Z,6.00
2019-05-30T10:39:28.069Z,4.43
2019-05-30T10:42:01.545Z,5.20
2019-05-30T10:44:35.084Z,6.10
2019-05-30T10:47:08.801Z,4.60
2019-05-30T10:49:41.992Z,4.73
2019-05-30T10:52:15.663Z,5.10
2019-05-30T10:54:49.563Z,4.43
2019-05-30T10:57:39.709Z,6.00
2019-05-30T11:00:14.723Z,5.53
2019-05-30T11:02:49.455Z,5.60
2019-05-30T11:05:23.064Z,5.40
2019-05-30T11:08:06.105Z,6.23
2019-05-30T11:10:39.271Z,5.20
2019-05-30T11:13:13.915Z,6.73
2019-05-30T11:15:48.750Z,5.60
2019-05-30T11:18:22.663Z,5.47
2019-05-30T11:20:56.522Z,6.43
2019-05-30T11:23:29.866Z,7.73
2019-05-30T11:26:04.944Z,5.50
2019-05-30T11:28:38.931Z,9.10
2019-05-30T11:31:12.666Z,6.80
2019-05-30T11:33:46.187Z,6.03
2019-05-30T11:36:19.761Z,8.07
2019-05-30T11:38:55.356Z,6.50
2019-05-30T11:41:37.815Z,7.10
2019-05-30T11:44:11.133Z,7.23
2019-05-30T11:46:44.666Z,6.87
2019-05-30T11:49:18.063Z,9.13
2019-05-30T11:51:51.688Z,7.23
2019-05-30T11:54:25.012Z,7.20
2019-05-30T11:57:06.853Z,8.07
2019-05-30T11:59:40.658Z,7.90
2019-05-30T12:02:14.187Z,7.57
2019-05-30T12:04:47.523Z,7.53
2019-05-30T12:07:35.452Z,8.87
2019-05-30T12:09:56.894Z,7.67
2019-05-30T12:12:39.254Z,8.50
2019-05-30T12:15:12.726Z,8.67
2019-05-30T12:17:46.017Z,9.80
2019-05-30T12:20:19.719Z,8.37
2019-05-30T12:22:53.681Z,8.67
2019-05-30T12:25:27.283Z,7.57
2019-05-30T12:28:03.712Z,8.80
2019-05-30T12:30:36.412Z,9.43
2019-05-30T12:33:10.523Z,8.43
2019-05-30T12:35:54.430Z,8.13
2019-05-30T12:38:27.833Z,8.50
2019-05-30T12:41:02.891Z,9.57
2019-05-30T12:43:36.572Z,8.40
2019-05-30T12:46:09.873Z,6.80
2019-05-30T12:48:43.065Z,9.77
2019-05-30T12:51:25.234Z,8.57
2019-05-30T12:53:58.590Z,8.83
2019-05-30T12:56:32.545Z,10.10
2019-05-30T12:59:07.132Z,10.03
2019-05-30T13:01:40.617Z,10.10
2019-05-30T13:04:14.527Z,10.70
2019-05-30T13:06:48.172Z,11.30
2019-05-30T13:09:21.776Z,10.97
2019-05-30T13:11:56.360Z,11.37
2019-05-30T13:14:30.017Z,10.90
2019-05-30T13:17:03.917Z,11.80
2019-05-30T13:19:59.065Z,11.30
2019-05-30T13:22:31.096Z,15.23
2019-05-30T13:25:21.502Z,11.43
2019-05-30T13:27:55.851Z,11.37
2019-05-30T13:30:48.759Z,11.87
2019-05-30T13:33:22.491Z,12.10
2019-05-30T13:36:10.942Z,10.73
2019-05-30T13:38:44.850Z,9.10
2019-05-30T13:41:29.888Z,8.43
2019-05-30T13:44:06.546Z,7.80
2019-05-30T13:46:39.311Z,8.20
2019-05-30T13:49:12.671Z,9.97
2019-05-30T13:51:58.788Z,11.97
2019-05-30T13:54:32.449Z,12.80
2019-05-30T13:57:07.870Z,12.67
2019-05-30T13:59:41.567Z,12.33
2019-05-30T14:02:14.886Z,11.43
2019-05-30T14:04:48.091Z,11.97
2019-05-30T14:07:21.290Z,11.30
2019-05-30T14:10:06.475Z,12.27
2019-05-30T14:12:40.446Z,12.00
2019-05-30T14:15:14.720Z,12.70
2019-05-30T14:18:00.929Z,13.53
2019-05-30T14:20:43.308Z,12.87
2019-05-30T14:23:17.321Z,13.53
2019-05-30T14:26:01.253Z,13.27
2019-05-30T14:28:34.704Z,14.57
2019-05-30T14:31:08.979Z,13.67
2019-05-30T14:33:41.724Z,13.47
2019-05-30T14:36:15.083Z,12.47
2019-05-30T14:38:57.669Z,13.80
2019-05-30T14:41:23.961Z,13.47
2019-05-30T14:43:58.432Z,13.63
2019-05-30T14:46:40.459Z,14.10
2019-05-30T14:49:14.411Z,14.63
2019-05-30T14:51:47.657Z,14.50
2019-05-30T14:54:21.924Z,14.03
2019-05-30T14:57:04.774Z,13.83
2019-05-30T14:59:47.247Z,13.53
2019-05-30T15:02:21.224Z,12.83
2019-05-30T15:05:03.661Z,13.80
2019-05-30T15:07:37.655Z,13.23
2019-05-30T15:10:21.463Z,14.00
2019-05-30T15:12:55.098Z,14.00
2019-05-30T15:15:28.445Z,13.37
2019-05-30T15:18:01.666Z,14.00
2019-05-30T15:20:35.047Z,13.10
2019-05-30T15:23:09.583Z,12.57
2019-05-30T15:25:44.051Z,12.30
2019-05-30T15:28:17.807Z,12.47
2019-05-30T15:30:50.988Z,13.07
2019-05-30T15:33:34.350Z,12.13
2019-05-30T15:36:08.565Z,12.90
2019-05-30T15:38:50.806Z,11.90
2019-05-30T15:41:24.011Z,11.93
2019-05-30T15:43:57.754Z,12.57
2019-05-30T15:46:31.352Z,11.90
2019-05-30T15:49:04.668Z,11.87
2019-05-30T15:51:37.846Z,10.87
2019-05-30T15:54:23.285Z,10.57
2019-05-30T15:57:05.307Z,13.10
2019-05-30T15:59:38.853Z,11.27
2019-05-30T16:02:12.480Z,11.20
2019-05-30T16:04:46.190Z,11.70
2019-05-30T16:07:20.809Z,11.77
2019-05-30T16:09:54.016Z,11.70
2019-05-30T16:12:39.477Z,12.73
2019-05-30T16:15:15.908Z,13.03
2019-05-30T16:17:49.328Z,11.90
2019-05-30T16:20:22.795Z,12.43
2019-05-30T16:22:56.574Z,11.43
2019-05-30T16:25:30.189Z,12.03
2019-05-30T16:28:03.939Z,12.57
2019-05-30T16:30:37.124Z,13.20
2019-05-30T16:33:10.833Z,11.67
2019-05-30T16:35:44.902Z,11.03
2019-05-30T16:38:18.139Z,11.17
2019-05-30T16:40:51.353Z,11.00
2019-05-30T16:43:24.987Z,10.73
2019-05-30T16:45:58.178Z,12.90
2019-05-30T16:48:32.922Z,10.80
2019-05-30T16:51:06.107Z,10.70
2019-05-30T16:53:39.887Z,11.63
2019-05-30T16:56:12.260Z,11.47
2019-05-30T16:58:45.890Z,14.47
2019-05-30T17:01:19.846Z,13.03
2019-05-30T17:04:03.006Z,12.97
2019-05-30T17:06:36.936Z,13.10
2019-05-30T17:09:10.291Z,11.57
2019-05-30T17:11:43.943Z,11.00
2019-05-30T17:14:17.604Z,12.60
2019-05-30T17:16:51.205Z,10.03
2019-05-30T17:19:24.596Z,10.07
2019-05-30T17:21:58.091Z,9.77
2019-05-30T17:24:39.875Z,11.23
2019-05-30T17:27:13.040Z,10.80
2019-05-30T17:29:46.226Z,10.50
2019-05-30T17:32:28.255Z,11.27
2019-05-30T17:35:02.039Z,12.73
2019-05-30T17:37:35.982Z,11.13
2019-05-30T17:40:18.671Z,9.60
2019-05-30T17:42:52.297Z,9.67
2019-05-30T17:45:27.046Z,10.13
2019-05-30T17:48:15.558Z,10.70
2019-05-30T17:50:35.582Z,9.83
2019-05-30T17:53:08.754Z,9.97
2019-05-30T17:55:41.941Z,10.87
2019-05-30T17:58:15.638Z,10.03
2019-05-30T18:01:03.940Z,10.37
2019-05-30T18:03:37.211Z,10.50
2019-05-30T18:06:10.452Z,10.17
2019-05-30T18:08:52.671Z,9.80
2019-05-30T18:11:38.235Z,10.97
2019-05-30T18:14:11.789Z,9.60
2019-05-30T18:16:45.651Z,10.20
2019-05-30T18:19:19.451Z,10.93
2019-05-30T18:21:55.118Z,9.60
2019-05-30T18:24:46.697Z,9.70
2019-05-30T18:27:29.753Z,10.23
2019-05-30T18:30:03.808Z,9.33
2019-05-30T18:32:36.994Z,9.60
2019-05-30T18:35:22.183Z,9.90
2019-05-30T18:38:10.120Z,9.77
2019-05-30T18:40:43.425Z,9.20
2019-05-30T18:43:16.758Z,8.97
2019-05-30T18:45:50.257Z,8.97
2019-05-30T18:48:23.486Z,8.40
2019-05-30T18:51:05.810Z,8.83
2019-05-30T18:53:39.288Z,10.20
2019-05-30T18:56:12.790Z,12.83
2019-05-30T18:58:46.286Z,8.20
2019-05-30T19:01:19.715Z,9.80
2019-05-30T19:03:53.588Z,8.73
2019-05-30T19:06:28.211Z,10.03
2019-05-30T19:09:02.344Z,8.97
2019-05-30T19:11:36.999Z,7.90
2019-05-30T19:14:11.205Z,9.27
2019-05-30T19:16:44.567Z,8.67
2019-05-30T19:19:18.027Z,9.37
2019-05-30T19:21:51.653Z,7.30
2019-05-30T19:24:26.025Z,8.00
2019-05-30T19:26:59.554Z,7.63
2019-05-30T19:29:34.888Z,8.00
2019-05-30T19:32:08.514Z,7.23
2019-05-30T19:34:41.619Z,8.77
2019-05-30T19:37:15.607Z,8.70
2019-05-30T19:39:49.745Z,8.20
2019-05-30T19:42:31.697Z,10.13
2019-05-30T19:45:05.154Z,8.80
2019-05-30T19:47:38.923Z,10.37
2019-05-30T19:50:12.451Z,8.50
2019-05-30T19:52:46.958Z,8.97
2019-05-30T19:55:21.618Z,9.03
2019-05-30T19:57:55.896Z,8.53
2019-05-30T20:00:29.863Z,10.53
2019-05-30T20:03:03.255Z,9.13
2019-05-30T20:05:36.808Z,9.20
2019-05-30T20:08:20.472Z,9.80
2019-05-30T20:10:54.287Z,10.53
2019-05-30T20:13:37.210Z,10.30
2019-05-30T20:16:19.381Z,12.13
2019-05-30T20:18:53.044Z,10.03
2019-05-30T20:21:26.841Z,9.93
2019-05-30T20:24:00.033Z,9.90
2019-05-30T20:26:34.412Z,11.73
2019-05-30T20:29:16.487Z,9.57
2019-05-30T20:31:59.816Z,10.37
2019-05-30T20:34:34.831Z,10.20
2019-05-30T20:37:08.774Z,10.33
2019-05-30T20:39:43.046Z,10.03
2019-05-30T20:42:19.465Z,11.07
2019-05-30T20:44:51.695Z,10.23
2019-05-30T20:47:25.772Z,10.50
2019-05-30T20:49:59.485Z,11.73
2019-05-30T20:52:33.243Z,9.90
2019-05-30T20:55:07.392Z,10.10
2019-05-30T20:57:49.365Z,10.37
2019-05-30T21:00:26.043Z,10.70
2019-05-30T21:02:59.596Z,10.67
2019-05-30T21:05:33.627Z,9.93
2019-05-30T21:08:07.039Z,11.33
2019-05-30T21:10:41.260Z,10.80
2019-05-30T21:13:23.351Z,10.33
2019-05-30T21:15:59.271Z,11.77
2019-05-30T21:18:52.107Z,11.03
2019-05-30T21:21:35.877Z,11.50
2019-05-30T21:24:09.894Z,11.10
2019-05-30T21:26:43.251Z,10.47
2019-05-30T21:29:17.141Z,11.53
2019-05-30T21:31:50.694Z,12.70
2019-05-30T21:34:24.236Z,11.60
2019-05-30T21:36:57.444Z,13.23
2019-05-30T21:39:31.164Z,11.23
2019-05-30T21:42:04.398Z,16.07
2019-05-30T21:44:38.459Z,12.57
2019-05-30T21:47:12.094Z,11.53
2019-05-30T21:49:45.271Z,11.50
2019-05-30T21:52:18.517Z,11.73
2019-05-30T21:55:03.235Z,11.63
2019-05-30T21:57:35.605Z,12.30
2019-05-30T22:00:12.491Z,13.00
2019-05-30T22:02:50.776Z,14.07
2019-05-30T22:05:24.465Z,11.20
2019-05-30T22:07:57.872Z,12.93
2019-05-30T22:10:31.524Z,14.17
2019-05-30T22:13:09.495Z,12.70
2019-05-30T22:15:41.611Z,15.10
2019-05-30T22:18:15.930Z,14.37
2019-05-30T22:20:49.929Z,12.83
2019-05-30T22:23:32.208Z,16.53
2019-05-30T22:26:05.513Z,15.73
2019-05-30T22:28:39.088Z,14.60
2019-05-30T22:31:12.077Z,16.47
2019-05-30T22:33:54.112Z,14.30
2019-05-30T22:36:27.795Z,15.23
2019-05-30T22:39:01.015Z,17.23
2019-05-30T22:41:36.485Z,18.03
2019-05-30T22:44:10.223Z,18.87
2019-05-30T22:46:44.079Z,16.27
2019-05-30T22:49:17.297Z,18.60
2019-05-30T22:51:51.161Z,17.33
2019-05-30T22:54:24.728Z,17.90
2019-05-30T22:57:01.335Z,18.80
2019-05-30T22:59:33.218Z,17.57
2019-05-30T23:02:06.413Z,16.97
2019-05-30T23:04:39.895Z,17.80
2019-05-30T23:07:22.329Z,17.90
2019-05-30T23:10:05.381Z,19.10
2019-05-30T23:12:54.065Z,20.40
2019-05-30T23:15:36.535Z,19.30
2019-05-30T23:18:10.000Z,20.53
2019-05-30T23:20:43.923Z,20.70
2019-05-30T23:23:18.749Z,21.20
2019-05-30T23:25:53.331Z,23.00
2019-05-30T23:28:27.867Z,23.70
2019-05-30T23:31:10.217Z,26.10
2019-05-30T23:33:43.731Z,25.80
2019-05-30T23:36:17.707Z,25.67
2019-05-30T23:38:51.308Z,24.17
2019-05-30T23:41:24.693Z,26.83
2019-05-30T23:44:10.542Z,28.27
2019-05-30T23:46:32.937Z,25.97
2019-05-30T23:49:07.368Z,29.67
2019-05-30T23:51:40.577Z,29.33
2019-05-30T23:54:14.278Z,32.57
2019-05-30T23:56:47.816Z,28.53
2019-05-30T23:59:22.472Z,28.73
